createdAt,value
2018-08-30T00:01:55.327Z,20.70
2018-08-30T00:04:22.563Z,20.60
2018-08-30T00:06:49.809Z,20.60
2018-08-30T00:09:17.067Z,21.20
2018-08-30T00:11:44.323Z,20.50
2018-08-30T00:14:11.576Z,20.40
2018-08-30T00:16:38.828Z,20.50
2018-08-30T00:19:06.092Z,20.40
2018-08-30T00:21:33.327Z,20.20
2018-08-30T00:24:00.547Z,20.40
2018-08-30T00:26:27.832Z,20.40
2018-08-30T00:28:55.075Z,20.40
2018-08-30T00:31:22.364Z,20.40
2018-08-30T00:33:49.583Z,20.40
2018-08-30T00:36:16.823Z,20.40
2018-08-30T00:38:44.055Z,20.40
2018-08-30T00:41:11.328Z,20.40
2018-08-30T00:43:38.490Z,20.50
2018-08-30T00:46:05.738Z,20.50
2018-08-30T00:48:32.975Z,20.50
2018-08-30T00:51:00.192Z,21.90
2018-08-30T00:53:27.436Z,21.50
2018-08-30T00:55:55.512Z,20.60
2018-08-30T00:58:22.763Z,20.70
2018-08-30T01:00:50.008Z,20.60
2018-08-30T01:03:17.237Z,20.60
2018-08-30T01:05:44.512Z,20.50
2018-08-30T01:08:11.783Z,20.70
2018-08-30T01:10:39.089Z,20.40
2018-08-30T01:13:06.325Z,20.40
2018-08-30T01:15:33.568Z,20.30
2018-08-30T01:18:00.787Z,19.00
2018-08-30T01:20:28.072Z,20.10
2018-08-30T01:22:55.375Z,19.90
2018-08-30T01:25:22.599Z,19.70
2018-08-30T01:27:49.831Z,19.60
2018-08-30T01:30:17.524Z,19.60
2018-08-30T01:32:44.988Z,18.90
2018-08-30T01:35:12.260Z,19.80
2018-08-30T01:37:39.523Z,19.40
2018-08-30T01:40:06.799Z,19.40
2018-08-30T01:42:34.042Z,19.40
2018-08-30T01:45:01.292Z,19.60
2018-08-30T01:47:28.514Z,19.30
2018-08-30T01:49:55.805Z,19.30
2018-08-30T01:52:23.106Z,18.30
2018-08-30T01:54:50.403Z,19.90
2018-08-30T01:57:17.611Z,19.30
2018-08-30T01:59:44.832Z,20.20
2018-08-30T02:02:12.086Z,19.30
2018-08-30T02:04:39.345Z,19.40
2018-08-30T02:07:06.623Z,19.30
2018-08-30T02:09:33.868Z,19.30
2018-08-30T02:12:01.163Z,19.30
2018-08-30T02:14:28.435Z,19.30
2018-08-30T02:16:55.695Z,20.10
2018-08-30T02:19:23.186Z,19.30
2018-08-30T02:21:50.428Z,19.30
2018-08-30T02:24:17.635Z,19.20
2018-08-30T02:26:44.872Z,19.20
2018-08-30T02:29:12.069Z,18.90
2018-08-30T02:31:39.288Z,19.20
2018-08-30T02:34:06.536Z,19.20
2018-08-30T02:36:33.752Z,19.70
2018-08-30T02:39:01.091Z,19.40
2018-08-30T02:41:28.323Z,19.30
2018-08-30T02:43:55.584Z,19.30
2018-08-30T02:46:22.828Z,19.30
2018-08-30T02:48:50.080Z,19.20
2018-08-30T02:51:17.280Z,19.20
2018-08-30T02:53:44.542Z,19.30
2018-08-30T02:56:11.796Z,19.90
2018-08-30T02:58:39.058Z,19.20
2018-08-30T03:01:06.349Z,19.10
2018-08-30T03:03:33.581Z,18.60
2018-08-30T03:06:00.822Z,19.00
2018-08-30T03:08:28.070Z,18.90
2018-08-30T03:10:55.299Z,18.80
2018-08-30T03:13:22.537Z,18.60
2018-08-30T03:15:49.758Z,18.50
2018-08-30T03:18:17.040Z,18.50
2018-08-30T03:20:44.246Z,18.50
2018-08-30T03:23:11.446Z,18.40
2018-08-30T03:25:38.695Z,18.30
2018-08-30T03:28:05.907Z,18.50
2018-08-30T03:30:33.210Z,18.30
2018-08-30T03:33:00.383Z,18.30
2018-08-30T03:35:27.583Z,18.40
2018-08-30T03:37:54.828Z,18.20
2018-08-30T03:40:22.094Z,18.20
2018-08-30T03:42:49.334Z,18.20
2018-08-30T03:45:16.552Z,18.40
2018-08-30T03:47:43.764Z,18.20
2018-08-30T03:50:11.063Z,18.20
2018-08-30T03:52:38.272Z,18.50
2018-08-30T03:55:05.549Z,18.10
2018-08-30T03:57:32.789Z,18.10
2018-08-30T04:00:00.055Z,18.00
2018-08-30T04:02:27.295Z,18.00
2018-08-30T04:04:54.523Z,17.90
2018-08-30T04:07:21.728Z,17.90
2018-08-30T04:09:49.005Z,17.60
2018-08-30T04:12:16.193Z,16.80
2018-08-30T04:14:43.436Z,17.80
2018-08-30T04:17:10.739Z,18.40
2018-08-30T04:19:37.951Z,18.40
2018-08-30T04:22:05.652Z,17.80
2018-08-30T04:24:32.783Z,17.90
2018-08-30T04:27:00.066Z,18.70
2018-08-30T04:29:27.251Z,17.90
2018-08-30T04:31:54.456Z,17.90
2018-08-30T04:34:21.732Z,17.80
2018-08-30T04:36:48.998Z,17.80
2018-08-30T04:39:16.235Z,18.60
2018-08-30T04:41:43.452Z,17.80
2018-08-30T04:44:10.807Z,17.80
2018-08-30T04:46:38.055Z,17.20
2018-08-30T04:49:05.291Z,18.20
2018-08-30T04:51:32.518Z,17.70
2018-08-30T04:53:59.780Z,17.70
2018-08-30T04:56:27.756Z,17.70
2018-08-30T04:58:54.991Z,17.70
2018-08-30T05:01:22.207Z,17.70
2018-08-30T05:03:49.500Z,18.20
2018-08-30T05:06:16.715Z,18.40
2018-08-30T05:08:43.963Z,19.40
2018-08-30T05:11:11.200Z,17.70
2018-08-30T05:13:38.406Z,17.80
2018-08-30T05:16:05.706Z,17.80
2018-08-30T05:18:32.968Z,17.40
2018-08-30T05:21:00.224Z,18.00
2018-08-30T05:23:27.476Z,18.10
2018-08-30T05:25:54.679Z,18.10
2018-08-30T05:28:21.909Z,18.10
2018-08-30T05:30:49.163Z,18.10
2018-08-30T05:33:16.419Z,18.20
2018-08-30T05:35:43.719Z,18.40
2018-08-30T05:38:10.959Z,18.30
2018-08-30T05:40:39.103Z,18.20
2018-08-30T05:43:06.290Z,18.20
2018-08-30T05:45:33.519Z,18.30
2018-08-30T05:48:00.725Z,18.60
2018-08-30T05:50:27.962Z,18.30
2018-08-30T05:52:55.207Z,17.50
2018-08-30T05:55:22.450Z,18.30
2018-08-30T05:57:49.679Z,18.30
2018-08-30T06:00:17.624Z,18.00
2018-08-30T06:02:44.831Z,18.30
2018-08-30T06:05:12.090Z,18.90
2018-08-30T06:07:39.312Z,18.30
2018-08-30T06:10:06.563Z,18.30
2018-08-30T06:12:33.803Z,16.10
2018-08-30T06:15:01.080Z,18.20
2018-08-30T06:17:28.285Z,18.00
2018-08-30T06:19:55.536Z,18.10
2018-08-30T06:22:22.735Z,18.10
2018-08-30T06:24:49.970Z,18.40
2018-08-30T06:27:17.196Z,17.90
2018-08-30T06:29:44.533Z,18.10
2018-08-30T06:32:11.785Z,18.70
2018-08-30T06:34:39.107Z,18.10
2018-08-30T06:37:06.312Z,18.10
2018-08-30T06:39:33.532Z,18.70
2018-08-30T06:42:00.784Z,18.20
2018-08-30T06:44:28.023Z,18.20
2018-08-30T06:46:55.235Z,18.70
2018-08-30T06:49:22.475Z,18.30
2018-08-30T06:51:49.744Z,18.30
2018-08-30T06:54:16.987Z,18.50
2018-08-30T06:56:44.195Z,18.40
2018-08-30T06:59:11.487Z,17.80
2018-08-30T07:01:38.770Z,18.30
2018-08-30T07:04:06.593Z,18.20
2018-08-30T07:06:33.804Z,18.20
2018-08-30T07:09:01.008Z,18.30
2018-08-30T07:11:28.263Z,18.40
2018-08-30T07:13:55.513Z,18.50
2018-08-30T07:16:22.759Z,18.60
2018-08-30T07:18:49.976Z,18.90
2018-08-30T07:21:17.203Z,18.70
2018-08-30T07:23:44.432Z,18.80
2018-08-30T07:26:11.671Z,18.80
2018-08-30T07:28:39.126Z,19.80
2018-08-30T07:31:06.326Z,18.90
2018-08-30T07:33:33.552Z,19.00
2018-08-30T07:36:00.867Z,19.10
2018-08-30T07:38:28.091Z,19.10
2018-08-30T07:40:55.318Z,19.20
2018-08-30T07:43:22.594Z,19.30
2018-08-30T07:45:49.856Z,19.10
2018-08-30T07:48:17.099Z,19.00
2018-08-30T07:50:44.333Z,19.00
2018-08-30T07:53:11.574Z,18.90
2018-08-30T07:55:38.852Z,20.60
2018-08-30T07:58:06.100Z,18.70
2018-08-30T08:00:33.352Z,18.60
2018-08-30T08:03:00.583Z,18.50
2018-08-30T08:05:27.835Z,18.50
2018-08-30T08:07:55.055Z,18.40
2018-08-30T08:10:22.320Z,17.60
2018-08-30T08:12:49.587Z,18.40
2018-08-30T08:15:16.827Z,18.40
2018-08-30T08:17:44.174Z,18.40
2018-08-30T08:20:11.383Z,18.40
2018-08-30T08:22:38.634Z,18.30
2018-08-30T08:25:05.884Z,17.80
2018-08-30T08:27:33.092Z,18.20
2018-08-30T08:30:00.318Z,18.10
2018-08-30T08:32:27.659Z,18.10
2018-08-30T08:34:54.973Z,18.20
2018-08-30T08:37:22.248Z,18.20
2018-08-30T08:39:49.537Z,18.10
2018-08-30T08:42:16.811Z,18.20
2018-08-30T08:44:44.052Z,17.60
2018-08-30T08:47:11.305Z,18.60
2018-08-30T08:49:38.588Z,18.50
2018-08-30T08:52:05.909Z,18.50
2018-08-30T08:54:33.356Z,18.50
2018-08-30T08:57:00.559Z,18.40
2018-08-30T08:59:27.800Z,18.90
2018-08-30T09:01:55.076Z,18.70
2018-08-30T09:04:22.326Z,18.80
2018-08-30T09:06:49.564Z,18.90
2018-08-30T09:09:16.795Z,18.90
2018-08-30T09:11:44.059Z,19.00
2018-08-30T09:14:11.386Z,19.10
2018-08-30T09:16:38.672Z,19.30
2018-08-30T09:19:06.016Z,19.90
2018-08-30T09:21:33.644Z,21.00
2018-08-30T09:24:00.871Z,19.70
2018-08-30T09:26:28.103Z,19.90
2018-08-30T09:28:55.388Z,20.00
2018-08-30T09:31:23.016Z,20.00
2018-08-30T09:33:50.300Z,20.10
2018-08-30T09:36:17.513Z,20.30
2018-08-30T09:38:44.819Z,20.90
2018-08-30T09:41:12.068Z,20.80
2018-08-30T09:43:39.332Z,20.60
2018-08-30T09:46:06.535Z,20.50
2018-08-30T09:48:33.770Z,20.10
2018-08-30T09:51:01.022Z,19.90
2018-08-30T09:53:28.529Z,19.40
2018-08-30T09:55:55.835Z,19.30
2018-08-30T09:58:23.105Z,19.30
2018-08-30T10:00:56.037Z,19.30
2018-08-30T10:03:23.265Z,19.50
2018-08-30T10:05:50.507Z,20.00
2018-08-30T10:08:17.765Z,19.60
2018-08-30T10:10:44.972Z,19.50
2018-08-30T10:13:12.206Z,19.60
2018-08-30T10:15:39.415Z,19.70
2018-08-30T10:18:06.669Z,19.80
2018-08-30T10:20:33.991Z,20.00
2018-08-30T10:23:01.275Z,20.30
2018-08-30T10:25:28.562Z,21.50
2018-08-30T10:27:55.758Z,23.50
2018-08-30T10:30:23.004Z,24.60
2018-08-30T10:32:50.247Z,26.10
2018-08-30T10:40:11.956Z,28.20
2018-08-30T10:42:39.247Z,27.90
2018-08-30T10:45:06.522Z,26.50
2018-08-30T10:47:33.750Z,25.00
2018-08-30T10:52:28.239Z,22.60
2018-08-30T10:54:55.451Z,21.60
2018-08-30T10:57:22.709Z,21.40
2018-08-30T10:59:50.014Z,22.10
2018-08-30T11:02:17.331Z,23.90
2018-08-30T11:04:44.679Z,24.30
2018-08-30T11:07:11.935Z,24.20
2018-08-30T11:09:39.167Z,23.50
2018-08-30T11:12:06.391Z,22.90
2018-08-30T11:14:33.666Z,23.20
2018-08-30T11:17:00.959Z,23.60
2018-08-30T11:19:28.238Z,23.80
2018-08-30T11:21:55.472Z,24.60
2018-08-30T11:24:22.719Z,25.20
2018-08-30T11:26:49.940Z,24.70
2018-08-30T11:29:17.212Z,24.40
2018-08-30T11:31:44.443Z,24.10
2018-08-30T11:34:11.651Z,23.90
2018-08-30T11:36:38.875Z,23.30
2018-08-30T11:39:06.403Z,22.60
2018-08-30T11:41:33.914Z,21.90
2018-08-30T11:44:01.025Z,21.20
2018-08-30T11:46:28.259Z,20.80
2018-08-30T11:48:55.524Z,20.80
2018-08-30T11:51:22.775Z,20.40
2018-08-30T11:53:50.043Z,20.70
2018-08-30T11:56:17.327Z,20.20
2018-08-30T11:58:44.566Z,21.30
2018-08-30T12:01:11.794Z,21.00
2018-08-30T12:03:39.053Z,20.60
2018-08-30T12:06:06.334Z,20.70
2018-08-30T12:08:33.586Z,20.80
2018-08-30T12:11:01.072Z,20.90
2018-08-30T12:13:28.134Z,20.90
2018-08-30T12:15:55.365Z,21.10
2018-08-30T12:18:22.611Z,21.30
2018-08-30T12:20:49.996Z,21.60
2018-08-30T12:23:17.054Z,21.20
2018-08-30T12:25:44.341Z,20.70
2018-08-30T12:28:11.596Z,21.30
2018-08-30T12:30:38.851Z,21.30
2018-08-30T12:33:06.089Z,21.20
2018-08-30T12:35:33.406Z,21.20
2018-08-30T12:38:00.584Z,21.30
2018-08-30T12:40:27.975Z,21.50
2018-08-30T12:42:55.207Z,21.40
2018-08-30T12:45:22.436Z,21.40
2018-08-30T12:47:49.647Z,21.50
2018-08-30T12:50:17.007Z,21.90
2018-08-30T12:52:44.230Z,22.70
2018-08-30T12:55:11.474Z,23.70
2018-08-30T12:57:38.732Z,24.60
2018-08-30T13:00:06.263Z,25.50
2018-08-30T13:02:33.479Z,26.50
2018-08-30T13:05:00.797Z,28.00
2018-08-30T13:07:28.020Z,28.20
2018-08-30T13:09:55.255Z,27.50
2018-08-30T13:12:22.596Z,26.60
2018-08-30T13:14:49.876Z,26.70
2018-08-30T13:17:17.015Z,26.40
2018-08-30T13:19:44.932Z,26.40
2018-08-30T13:22:12.676Z,27.40
2018-08-30T13:24:39.778Z,28.00
2018-08-30T13:27:07.033Z,27.90
2018-08-30T13:29:34.265Z,27.30
2018-08-30T13:32:07.436Z,26.40
2018-08-30T13:34:35.236Z,27.00
2018-08-30T13:37:02.647Z,27.60
2018-08-30T13:39:29.988Z,28.80
2018-08-30T13:41:57.268Z,29.60
2018-08-30T13:44:24.618Z,29.00
2018-08-30T13:46:51.956Z,27.70
2018-08-30T13:49:18.875Z,29.40
2018-08-30T13:51:46.395Z,30.10
2018-08-30T13:54:14.671Z,30.50
2018-08-30T13:56:44.389Z,30.20
2018-08-30T13:59:11.461Z,30.00
2018-08-30T14:01:38.569Z,29.90
2018-08-30T14:04:05.915Z,29.30
2018-08-30T14:06:33.881Z,28.60
2018-08-30T14:09:01.337Z,28.50
2018-08-30T14:11:28.592Z,28.10
2018-08-30T14:13:55.924Z,27.60
2018-08-30T14:16:22.900Z,26.50
2018-08-30T14:18:50.588Z,25.70
2018-08-30T14:21:17.875Z,25.20
2018-08-30T14:23:45.120Z,25.00
2018-08-30T14:26:12.349Z,25.30
2018-08-30T14:28:39.695Z,25.50
2018-08-30T14:31:06.918Z,25.40
2018-08-30T14:33:34.147Z,25.20
2018-08-30T14:36:01.350Z,25.20
2018-08-30T14:38:28.587Z,24.70
2018-08-30T14:40:55.867Z,24.30
2018-08-30T14:43:23.127Z,24.10
2018-08-30T14:45:50.686Z,23.80
2018-08-30T14:48:17.752Z,23.50
2018-08-30T14:50:45.020Z,23.20
2018-08-30T14:53:12.281Z,23.10
2018-08-30T14:55:39.681Z,21.90
2018-08-30T14:58:07.372Z,23.00
2018-08-30T15:00:34.621Z,23.00
2018-08-30T15:03:01.853Z,23.00
2018-08-30T15:05:29.267Z,23.20
2018-08-30T15:07:56.428Z,23.00
2018-08-30T15:10:23.700Z,22.90
2018-08-30T15:12:50.997Z,23.30
2018-08-30T15:15:18.192Z,23.50
2018-08-30T15:17:45.417Z,23.70
2018-08-30T15:20:12.742Z,23.80
2018-08-30T15:22:39.938Z,23.80
2018-08-30T15:25:07.651Z,23.90
2018-08-30T15:27:34.992Z,23.70
2018-08-30T15:30:02.348Z,25.00
2018-08-30T15:32:29.712Z,23.90
2018-08-30T15:34:57.044Z,23.80
2018-08-30T15:37:25.168Z,23.70
2018-08-30T15:39:52.460Z,23.30
2018-08-30T15:42:19.799Z,23.70
2018-08-30T15:44:47.095Z,23.50
2018-08-30T15:47:16.734Z,23.20
2018-08-30T15:49:43.944Z,23.40
2018-08-30T15:52:11.705Z,23.60
2018-08-30T15:54:39.740Z,22.50
2018-08-30T15:57:07.129Z,21.30
2018-08-30T15:59:34.866Z,22.40
2018-08-30T16:02:03.020Z,22.40
2018-08-30T16:04:30.340Z,23.00
2018-08-30T16:06:57.636Z,23.20
2018-08-30T16:09:26.500Z,23.30
2018-08-30T16:11:53.903Z,24.50
2018-08-30T16:14:22.079Z,22.90
2018-08-30T16:16:50.045Z,22.20
2018-08-30T16:19:17.392Z,22.40
2018-08-30T16:21:44.566Z,22.20
2018-08-30T16:24:12.327Z,22.00
2018-08-30T16:26:39.599Z,22.20
2018-08-30T16:29:07.792Z,22.00
2018-08-30T16:31:35.069Z,21.90
2018-08-30T16:34:02.332Z,21.80
2018-08-30T16:36:29.656Z,21.80
2018-08-30T16:38:56.886Z,21.50
2018-08-30T16:41:25.067Z,21.60
2018-08-30T16:43:52.527Z,21.60
2018-08-30T16:46:19.797Z,21.50
2018-08-30T16:48:47.167Z,21.50
2018-08-30T16:53:49.824Z,21.80
2018-08-30T16:56:19.898Z,21.20
2018-08-30T16:58:47.156Z,19.70
2018-08-30T17:01:14.391Z,21.50
2018-08-30T17:03:41.879Z,21.20
2018-08-30T17:06:09.132Z,21.20
2018-08-30T17:08:38.643Z,21.90
2018-08-30T17:11:05.884Z,21.00
2018-08-30T17:16:00.751Z,20.90
2018-08-30T17:18:28.236Z,20.80
2018-08-30T17:20:56.745Z,20.70
2018-08-30T17:23:24.143Z,21.40
2018-08-30T17:25:51.391Z,20.60
2018-08-30T17:28:18.703Z,20.50
2018-08-30T17:30:45.984Z,20.50
2018-08-30T17:33:13.236Z,20.50
2018-08-30T17:35:41.271Z,20.20
2018-08-30T17:38:08.579Z,20.20
2018-08-30T17:40:35.904Z,20.50
2018-08-30T17:50:25.543Z,19.60
2018-08-30T17:52:52.904Z,19.50
2018-08-30T17:55:21.943Z,19.40
2018-08-30T17:57:49.330Z,19.30
2018-08-30T18:02:44.758Z,19.00
2018-08-30T18:05:13.363Z,19.40
2018-08-30T18:07:40.613Z,18.90
2018-08-30T18:10:08.528Z,18.80
2018-08-30T18:12:36.399Z,18.70
2018-08-30T18:15:05.014Z,18.60
2018-08-30T18:17:32.263Z,18.50
2018-08-30T18:19:59.650Z,18.90
2018-08-30T18:22:26.963Z,18.50
2018-08-30T18:24:54.219Z,18.10
2018-08-30T18:27:21.661Z,18.10
2018-08-30T18:29:48.931Z,18.10
2018-08-30T18:32:18.343Z,18.00
2018-08-30T18:34:45.638Z,18.00
2018-08-30T18:37:12.942Z,19.40
2018-08-30T18:39:40.208Z,17.90
2018-08-30T18:42:07.430Z,17.80
2018-08-30T18:44:34.668Z,17.60
2018-08-30T18:47:01.987Z,17.60
2018-08-30T18:49:29.483Z,17.50
2018-08-30T18:51:56.865Z,18.00
2018-08-30T18:54:24.192Z,17.40
2018-08-30T18:56:51.508Z,17.40
2018-08-30T18:59:18.891Z,17.30
2018-08-30T19:01:46.165Z,17.30
2018-08-30T19:04:13.416Z,17.10
2018-08-30T19:06:40.647Z,17.10
2018-08-30T19:09:09.269Z,17.00
2018-08-30T19:11:36.598Z,16.90
2018-08-30T19:14:04.796Z,16.90
2018-08-30T19:16:38.303Z,16.80
2018-08-30T19:19:21.239Z,16.20
2018-08-30T19:21:48.539Z,16.70
2018-08-30T19:24:24.459Z,17.00
2018-08-30T19:26:52.660Z,15.70
2018-08-30T19:29:20.114Z,16.50
2018-08-30T19:31:47.405Z,16.50
2018-08-30T19:34:14.748Z,16.40
2018-08-30T19:36:42.189Z,16.40
2018-08-30T19:42:30.421Z,15.20
2018-08-30T19:45:05.096Z,16.20
2018-08-30T19:47:32.411Z,16.20
2018-08-30T19:50:02.756Z,16.10
2018-08-30T19:52:30.104Z,16.60
2018-08-30T19:54:57.514Z,16.00
2018-08-30T19:57:26.271Z,16.30
2018-08-30T19:59:54.731Z,16.40
2018-08-30T20:02:21.996Z,15.80
2018-08-30T20:04:51.443Z,15.60
2018-08-30T20:07:18.675Z,15.80
2018-08-30T20:09:46.028Z,15.70
2018-08-30T20:12:13.260Z,16.00
2018-08-30T20:14:40.503Z,17.00
2018-08-30T20:17:09.883Z,15.50
2018-08-30T20:19:40.803Z,15.60
2018-08-30T20:22:11.668Z,15.40
2018-08-30T20:24:41.733Z,15.40
2018-08-30T20:27:10.444Z,16.40
2018-08-30T20:29:37.806Z,15.30
2018-08-30T20:32:05.535Z,16.20
2018-08-30T20:34:34.752Z,15.40
2018-08-30T20:37:02.102Z,15.30
2018-08-30T20:39:30.350Z,15.10
2018-08-30T20:41:58.472Z,15.10
2018-08-30T20:44:26.996Z,15.20
2018-08-30T20:46:54.838Z,15.20
2018-08-30T20:49:22.195Z,14.90
2018-08-30T20:51:49.532Z,14.10
2018-08-30T20:54:17.395Z,14.90
2018-08-30T20:56:47.568Z,14.80
2018-08-30T20:59:15.007Z,14.80
2018-08-30T21:01:42.361Z,15.00
2018-08-30T21:04:09.603Z,14.80
2018-08-30T21:06:36.987Z,14.20
2018-08-30T21:09:25.029Z,14.60
2018-08-30T21:11:52.404Z,14.80
2018-08-30T21:14:19.732Z,14.50
2018-08-30T21:16:49.101Z,14.50
2018-08-30T21:19:18.843Z,14.10
2018-08-30T21:21:50.100Z,14.40
2018-08-30T21:24:17.455Z,14.30
2018-08-30T21:26:44.689Z,13.10
2018-08-30T21:29:14.117Z,14.80
2018-08-30T21:31:43.461Z,12.70
2018-08-30T21:34:11.454Z,14.20
2018-08-30T21:36:39.408Z,14.20
2018-08-30T21:39:08.270Z,13.40
2018-08-30T21:41:35.545Z,14.20
2018-08-30T21:44:02.852Z,13.50
2018-08-30T21:46:30.160Z,15.20
2018-08-30T21:48:57.489Z,14.10
2018-08-30T21:51:24.812Z,13.80
2018-08-30T21:53:52.060Z,14.60
2018-08-30T21:56:19.338Z,15.00
2018-08-30T21:58:46.724Z,14.00
2018-08-30T22:01:14.613Z,13.80
2018-08-30T22:03:41.951Z,14.30
2018-08-30T22:06:09.332Z,13.80
2018-08-30T22:08:36.583Z,14.90
2018-08-30T22:11:03.850Z,14.50
2018-08-30T22:13:31.229Z,14.00
2018-08-30T22:15:58.499Z,14.90
2018-08-30T22:18:25.755Z,14.20
2018-08-30T22:20:53.471Z,13.30
2018-08-30T22:23:20.912Z,13.80
2018-08-30T22:25:48.313Z,14.60
2018-08-30T22:28:15.740Z,13.10
2018-08-30T22:30:43.788Z,13.70
2018-08-30T22:33:11.192Z,13.60
2018-08-30T22:35:38.531Z,13.70
2018-08-30T22:38:05.871Z,13.70
2018-08-30T22:40:33.138Z,13.70
2018-08-30T22:43:00.871Z,12.80
2018-08-30T22:45:29.168Z,13.70
2018-08-30T22:47:56.445Z,13.80
2018-08-30T22:50:23.670Z,13.60
2018-08-30T22:52:51.635Z,14.50
2018-08-30T22:55:22.364Z,13.60
2018-08-30T22:57:49.707Z,13.80
2018-08-30T23:00:16.894Z,13.50
2018-08-30T23:02:44.256Z,13.40
2018-08-30T23:05:11.540Z,13.30
2018-08-30T23:07:39.141Z,13.80
2018-08-30T23:10:06.516Z,13.50
2018-08-30T23:12:33.752Z,12.50
2018-08-30T23:15:01.220Z,13.60
2018-08-30T23:17:28.636Z,13.10
2018-08-30T23:19:55.887Z,13.50
2018-08-30T23:22:25.037Z,13.00
2018-08-30T23:29:47.516Z,12.90
2018-08-30T23:32:14.764Z,12.90
2018-08-30T23:34:42.031Z,12.70
2018-08-30T23:37:09.355Z,12.80
2018-08-30T23:39:36.679Z,12.80
2018-08-30T23:42:03.997Z,12.80
2018-08-30T23:44:31.301Z,12.80
2018-08-30T23:46:58.531Z,12.80
2018-08-30T23:49:25.799Z,12.80
2018-08-30T23:51:53.139Z,12.70
2018-08-30T23:54:20.426Z,12.70
2018-08-30T23:56:47.789Z,12.70
2018-08-30T23:59:26.622Z,14.00
